EDT,Max TemperatureF,Mean TemperatureF,Min TemperatureF,Max Dew PointF,MeanDew PointF,Min DewpointF,Max Humidity, Mean Humidity, Min Humidity, Max Sea Level PressureIn, Mean Sea Level PressureIn, Min Sea Level PressureIn, Max VisibilityMiles, Mean VisibilityMiles, Min VisibilityMiles, Max Wind SpeedMPH, Mean Wind SpeedMPH, Max Gust SpeedMPH,PrecipitationIn, CloudCover, Events, WindDirDegrees
2013-9-1,84,74,63,70,65,63,100,85,48,30.03,29.99,29.92,10,6,0,8,1,17,0.00,5,Fog-Rain,280
2013-9-2,82,72,63,68,65,62,100,85,51,30.06,30.00,29.94,10,7,2,7,1,9,0.00,4,,305
2013-9-3,82,71,60,65,61,56,100,80,41,30.10,30.02,29.97,10,7,0,13,1,25,0.04,2,Fog-Rain,314
2013-9-4,82,70,59,66,61,55,100,83,39,30.22,30.15,30.10,10,6,0,4,0,,0.00,4,Fog,283
2013-9-5,83,71,59,66,60,50,99,82,35,30.25,30.21,30.16,10,6,0,6,0,,0.00,4,Fog,321
2013-9-6,81,69,57,64,60,55,99,81,41,30.27,30.22,30.15,10,7,0,4,0,,0.00,5,Fog,202
2013-9-7,81,70,58,65,59,57,99,82,45,30.23,30.17,30.09,10,6,0,7,0,,0.00,4,Fog,272
2013-9-8,80,68,57,65,60,57,99,82,47,30.13,30.09,30.05,10,5,0,8,1,,0.00,4,Fog,309
2013-9-9,84,72,59,66,61,58,100,82,44,30.25,30.18,30.13,10,5,0,7,0,,0.00,5,Fog,206
2013-9-10,84,72,60,66,62,60,100,83,46,30.35,30.29,30.24,10,6,0,6,0,,0.00,5,Fog,143
2013-9-11,82,71,60,68,62,57,99,84,43,30.35,30.28,30.20,10,6,0,6,0,,0.00,5,Fog-Rain,127
2013-9-12,76,70,63,67,64,63,100,92,62,30.22,30.12,30.01,10,7,0,10,1,,0.13,5,Fog-Rain,313
2013-9-13,76,64,52,63,55,47,100,73,40,30.02,29.97,29.93,10,8,1,9,2,18,0.04,2,Rain,309
2013-9-14,75,60,46,56,49,42,98,79,32,30.18,30.08,30.02,10,7,0,5,0,,0.00,2,Fog,242
2013-9-15,76,62,49,60,53,49,99,82,42,30.27,30.22,30.18,10,6,0,6,1,,0.00,4,Fog,155
2013-9-16,80,66,53,62,55,44,99,80,27,30.25,30.22,30.16,10,6,0,7,1,,0.00,5,Fog,314
2013-9-17,70,64,58,61,57,53,100,80,58,30.32,30.28,30.23,10,9,1,6,0,,0.00,7,,170
2013-9-18,67,62,58,60,56,50,98,81,59,30.33,30.28,30.23,10,10,7,4,0,,0.00,8,,50
2013-9-19,79,68,57,64,59,56,99,82,48,30.27,30.22,30.15,10,9,0,7,0,,0.00,5,Fog,306
2013-9-20,79,68,57,64,59,56,99,84,46,30.18,30.11,30.01,10,6,0,5,0,,0.00,4,Fog,194
2013-9-21,66,61,56,65,60,56,100,93,82,30.03,29.88,29.78,10,7,2,9,1,,0.73,5,Rain,272
2013-9-22,74,62,49,57,52,43,98,81,33,29.99,29.91,29.85,10,8,0,8,2,,0.04,3,Fog,299
2013-9-23,74,63,52,59,54,50,99,84,45,30.13,30.06,29.99,10,6,0,7,0,,0.00,5,Fog,177
2013-9-24,73,62,50,59,55,50,99,84,58,30.14,30.07,29.99,10,7,0,6,0,,0.00,7,Fog,148
2013-9-25,63,60,58,61,59,58,99,95,83,29.99,29.95,29.91,10,7,1,0,0,,1.35,8,Rain,-1
2013-9-26,74,64,55,62,57,54,99,87,53,30.12,30.01,29.95,10,8,0,7,0,,0.16,6,Fog-Rain,331
2013-9-27,74,62,51,58,53,48,99,85,41,30.24,30.17,30.12,10,6,0,5,0,,0.02,5,Fog,310
2013-9-28,72,61,50,56,52,49,99,82,45,30.30,30.23,30.18,10,7,0,6,0,,0.00,6,Fog,255
2013-9-29,70,61,52,56,53,49,99,81,49,30.23,30.16,30.09,10,9,5,5,0,,0.00,6,,34
2013-9-30,71,61,51,58,53,49,98,85,46,30.17,30.12,30.06,10,7,0,6,0,,0.00,5,Fog,202